Time;durP1;ratioP1;P1;durP2;ratioP2;P2;SDS_P1;SDS_P2;PMS_P1;PMS_P2;Temp;Humidity;BMP_temperature;BMP_pressure;BME280_temperature;BME280_humidity;BME280_pressure;Samples;Min_cycle;Max_cycle;Signal;HPM_P1;HPM_P2
2022/07/24 00:01:23;;;;;;;;;;;;;;;26.26;99.07;98366.25;4845488;29;19958;-69
2022/07/24 00:03:51;;;;;;;;;;;;;;;26.22;99.33;98364.88;4845469;29;19952;-69
2022/07/24 00:06:18;;;;;;;;;;;;;;;26.26;99.66;98365.47;4845925;29;19967;-69
2022/07/24 00:08:45;;;;;;;;;;;;;;;26.25;99.99;98363.88;4845789;29;20255;-69
2022/07/24 00:11:12;;;;;;;;;;;;;;;26.20;100.00;98362.53;4843519;29;19960;-69
2022/07/24 00:13:40;;;;;;;;;;;;;;;26.23;100.00;98355.78;4843484;29;19949;-69
2022/07/24 00:16:07;;;;;;;;;;;;;;;26.22;100.00;98362.81;4844370;29;20243;-69
2022/07/24 00:18:35;;;;;;;;;;;;;;;26.23;100.00;98373.00;4844888;29;20361;-69
2022/07/24 00:21:02;;;;;;;;;;;;;;;26.25;100.00;98363.88;4843352;29;19980;-69
2022/07/24 00:23:30;;;;;;;;;;;;;;;26.24;100.00;98373.78;4843932;29;19969;-69
2022/07/24 00:25:57;;;;;;;;;;;;;;;26.22;100.00;98364.88;4845136;29;19954;-69
2022/07/24 00:28:24;;;;;;;;;;;;;;;26.17;100.00;98366.38;4829276;29;20248;-69
2022/07/24 00:30:52;;;;;;;;;;;;;;;26.10;100.00;98359.00;4845578;29;20300;-69
2022/07/24 00:33:19;;;;;;;;;;;;;;;26.08;100.00;98363.66;4844412;29;20243;-69
2022/07/24 00:35:46;;;;;;;;;;;;;;;26.04;100.00;98368.81;4844208;29;19946;-69
2022/07/24 00:38:14;;;;;;;;;;;;;;;26.05;100.00;98370.38;4845058;29;19976;-69
2022/07/24 00:40:41;;;;;;;;;;;;;;;25.98;100.00;98360.13;4845505;29;20341;-69
2022/07/24 00:43:08;;;;;;;;;;;;;;;25.95;100.00;98364.00;4844868;29;19949;-69
2022/07/24 00:45:36;;;;;;;;;;;;;;;25.93;100.00;98368.66;4839293;29;19948;-69
2022/07/24 00:48:03;;;;;;;;;;;;;;;25.92;100.00;98372.81;4845084;29;20276;-69
2022/07/24 00:50:31;;;;;;;;;;;;;;;25.90;100.00;98370.44;4844837;29;20248;-69
2022/07/24 00:52:58;;;;;;;;;;;;;;;25.87;100.00;98362.81;4845062;29;19958;-69
2022/07/24 00:55:26;;;;;;;;;;;;;;;25.86;100.00;98371.94;4844754;29;20022;-69
2022/07/24 00:57:53;;;;;;;;;;;;;;;25.83;100.00;98372.94;4844351;29;19990;-69
2022/07/24 01:00:22;;;;;;;;;;;;;;;25.83;100.00;98364.34;4845290;29;20252;-69
2022/07/24 01:02:50;;;;;;;;;;;;;;;25.76;100.00;98368.41;4844579;29;20349;-69
2022/07/24 01:05:18;;;;;;;;;;;;;;;25.74;100.00;98365.25;4847922;29;19947;-69
2022/07/24 01:07:46;;;;;;;;;;;;;;;25.74;100.00;98364.47;4845678;29;19949;-69
2022/07/24 01:10:13;;;;;;;;;;;;;;;25.72;100.00;98367.06;4844284;29;19956;-69
2022/07/24 01:12:41;;;;;;;;;;;;;;;25.69;100.00;98368.03;4845038;29;19963;-69
2022/07/24 01:15:09;;;;;;;;;;;;;;;25.68;100.00;98367.25;4848545;29;20001;-69
2022/07/24 01:17:38;;;;;;;;;;;;;;;25.68;100.00;98369.31;4843752;29;19952;-69
2022/07/24 01:20:07;;;;;;;;;;;;;;;25.73;100.00;98371.47;4844029;29;19968;-69
2022/07/24 01:22:34;;;;;;;;;;;;;;;25.78;100.00;98383.03;4844776;29;19975;-69
2022/07/24 01:25:01;;;;;;;;;;;;;;;25.79;100.00;98387.47;4844161;29;19963;-69
2022/07/24 01:27:28;;;;;;;;;;;;;;;25.83;100.00;98390.13;4844824;29;20239;-69
2022/07/24 01:29:56;;;;;;;;;;;;;;;25.80;100.00;98394.00;4845053;29;19945;-69
2022/07/24 01:32:23;;;;;;;;;;;;;;;25.77;100.00;98403.59;4845006;29;19952;-69
2022/07/24 01:34:50;;;;;;;;;;;;;;;25.71;100.00;98405.56;4844955;29;19947;-69
2022/07/24 01:37:18;;;;;;;;;;;;;;;25.69;100.00;98408.13;4844315;29;19973;-69
2022/07/24 01:39:45;;;;;;;;;;;;;;;25.61;100.00;98401.25;4844409;29;20361;-69
2022/07/24 01:42:12;;;;;;;;;;;;;;;25.53;100.00;98405.81;4828728;29;19953;-69
2022/07/24 01:44:39;;;;;;;;;;;;;;;25.52;100.00;98401.38;4844506;29;20407;-69
2022/07/24 01:47:07;;;;;;;;;;;;;;;25.48;100.00;98392.19;4849851;29;19954;-69
2022/07/24 01:49:34;;;;;;;;;;;;;;;25.41;100.00;98414.19;4850354;29;19953;-69
2022/07/24 01:52:01;;;;;;;;;;;;;;;25.43;100.00;98408.75;4850287;29;20263;-69
2022/07/24 01:54:28;;;;;;;;;;;;;;;25.38;100.00;98412.28;4850440;29;19981;-69
2022/07/24 01:56:56;;;;;;;;;;;;;;;25.41;100.00;98404.78;4850762;29;19954;-69
2022/07/24 01:59:23;;;;;;;;;;;;;;;25.41;100.00;98404.78;4833987;29;20301;-69
2022/07/24 02:01:50;;;;;;;;;;;;;;;25.38;100.00;98406.56;4849889;29;19954;-69
2022/07/24 02:04:18;;;;;;;;;;;;;;;25.28;100.00;98408.00;4842735;29;20340;-69
2022/07/24 02:06:45;;;;;;;;;;;;;;;25.16;100.00;98403.31;4850717;29;19947;-69
2022/07/24 02:09:12;;;;;;;;;;;;;;;25.08;100.00;98409.97;4850565;29;19953;-69
2022/07/24 02:11:39;;;;;;;;;;;;;;;24.90;100.00;98402.34;4849965;29;20557;-69
2022/07/24 02:14:07;;;;;;;;;;;;;;;24.82;100.00;98404.00;4850208;29;19950;-69
2022/07/24 02:16:34;;;;;;;;;;;;;;;24.79;100.00;98400.09;4849614;29;20308;-69
2022/07/24 02:19:01;;;;;;;;;;;;;;;24.83;100.00;98399.88;4833553;29;19966;-69
2022/07/24 02:21:29;;;;;;;;;;;;;;;24.75;100.00;98405.16;4849662;29;19976;-69
2022/07/24 02:23:56;;;;;;;;;;;;;;;24.73;100.00;98407.72;4850172;29;19957;-69
2022/07/24 02:26:24;;;;;;;;;;;;;;;24.76;100.00;98405.94;4850182;29;19954;-69
2022/07/24 02:28:51;;;;;;;;;;;;;;;24.76;100.00;98408.81;4849989;29;19979;-69
2022/07/24 02:31:18;;;;;;;;;;;;;;;24.69;100.00;98407.13;4850118;29;19952;-69
2022/07/24 02:33:46;;;;;;;;;;;;;;;24.74;100.00;98408.53;4850393;29;19960;-69
2022/07/24 02:36:13;;;;;;;;;;;;;;;24.70;100.00;98416.47;4849886;29;19948;-69
2022/07/24 02:38:41;;;;;;;;;;;;;;;24.61;100.00;98417.38;4849024;29;19970;-69
2022/07/24 02:41:08;;;;;;;;;;;;;;;24.53;100.00;98419.00;4849929;29;19954;-69
2022/07/24 02:43:35;;;;;;;;;;;;;;;24.42;100.00;98413.09;4849984;29;19947;-69
2022/07/24 02:46:02;;;;;;;;;;;;;;;24.34;100.00;98411.88;4836985;29;19951;-69
2022/07/24 02:48:30;;;;;;;;;;;;;;;24.29;100.00;98412.53;4850225;29;19982;-69
2022/07/24 02:50:57;;;;;;;;;;;;;;;24.23;100.00;98420.22;4833911;29;19960;-69
2022/07/24 02:53:24;;;;;;;;;;;;;;;24.17;100.00;98419.28;4850160;29;19979;-69
2022/07/24 02:55:51;;;;;;;;;;;;;;;24.17;100.00;98411.53;4850166;29;19956;-69
2022/07/24 02:58:18;;;;;;;;;;;;;;;24.18;100.00;98418.03;4847398;29;19952;-69
2022/07/24 03:00:46;;;;;;;;;;;;;;;24.13;100.00;98421.56;4847293;29;19954;-69
2022/07/24 03:03:13;;;;;;;;;;;;;;;24.12;100.00;98417.91;4847452;29;20254;-69
2022/07/24 03:05:40;;;;;;;;;;;;;;;24.10;100.00;98417.59;4846724;29;19948;-69
2022/07/24 03:08:08;;;;;;;;;;;;;;;24.05;100.00;98426.81;4846739;29;19956;-69
2022/07/24 03:10:35;;;;;;;;;;;;;;;24.03;100.00;98428.56;4846827;29;19956;-69
2022/07/24 03:13:02;;;;;;;;;;;;;;;23.99;100.00;98428.75;4846763;29;20368;-69
2022/07/24 03:15:30;;;;;;;;;;;;;;;23.96;100.00;98424.03;4846826;29;19951;-69
2022/07/24 03:17:57;;;;;;;;;;;;;;;23.94;100.00;98417.97;4846526;29;19948;-69
2022/07/24 03:20:25;;;;;;;;;;;;;;;23.94;100.00;98425.78;4846281;29;19971;-69
2022/07/24 03:22:53;;;;;;;;;;;;;;;23.94;100.00;98417.97;4846714;29;19951;-69
2022/07/24 03:25:20;;;;;;;;;;;;;;;23.93;100.00;98418.47;4846377;29;19957;-69
2022/07/24 03:27:49;;;;;;;;;;;;;;;23.85;100.00;98423.75;4846674;29;19949;-69
2022/07/24 03:30:17;;;;;;;;;;;;;;;23.81;100.00;98416.63;4846946;29;20353;-69
2022/07/24 03:32:44;;;;;;;;;;;;;;;23.85;100.00;98420.09;4846200;29;19958;-69
2022/07/24 03:35:11;;;;;;;;;;;;;;;23.93;100.00;98418.47;4846764;29;19947;-69
2022/07/24 03:37:39;;;;;;;;;;;;;;;24.00;100.00;98418.13;4846626;29;19961;-69
2022/07/24 03:40:06;;;;;;;;;;;;;;;24.05;100.00;98421.09;4846650;29;19965;-69
2022/07/24 03:42:34;;;;;;;;;;;;;;;24.12;100.00;98420.75;4846056;29;19963;-69
2022/07/24 03:45:01;;;;;;;;;;;;;;;24.17;100.00;98425.81;4846758;29;19945;-69
2022/07/24 03:47:29;;;;;;;;;;;;;;;24.23;100.00;98428.78;4846358;29;20422;-69
2022/07/24 03:49:56;;;;;;;;;;;;;;;24.26;100.00;98430.66;4845875;29;20377;-69
2022/07/24 03:52:23;;;;;;;;;;;;;;;24.30;100.00;98424.78;4846133;29;19951;-69
2022/07/24 03:54:51;;;;;;;;;;;;;;;24.33;100.00;98429.53;4845823;29;19947;-69
2022/07/24 03:57:19;;;;;;;;;;;;;;;24.36;100.00;98434.25;4846250;29;19952;-69
2022/07/24 03:59:47;;;;;;;;;;;;;;;24.35;100.00;98433.47;4846298;29;20362;-69
2022/07/24 04:02:14;;;;;;;;;;;;;;;24.41;100.00;98436.44;4846195;29;19954;-69
2022/07/24 04:04:41;;;;;;;;;;;;;;;24.42;100.00;98435.16;4845692;29;19954;-69
2022/07/24 04:07:09;;;;;;;;;;;;;;;24.45;100.00;98437.84;4845883;29;19957;-69
2022/07/24 04:09:36;;;;;;;;;;;;;;;24.45;100.00;98434.19;4845190;29;19976;-69
2022/07/24 04:12:03;;;;;;;;;;;;;;;24.49;100.00;98441.28;4846104;29;19952;-69
2022/07/24 04:14:32;;;;;;;;;;;;;;;24.56;100.00;98446.63;4846084;29;20282;-69
2022/07/24 04:16:59;;;;;;;;;;;;;;;24.63;100.00;98446.25;4845754;29;19951;-69
2022/07/24 04:19:26;;;;;;;;;;;;;;;24.69;100.00;98444.31;4845473;29;19968;-69
2022/07/24 04:21:55;;;;;;;;;;;;;;;24.77;100.00;98448.38;4845284;29;19979;-69
2022/07/24 04:24:22;;;;;;;;;;;;;;;24.77;100.00;98451.25;4845600;29;19949;-69
2022/07/24 04:26:49;;;;;;;;;;;;;;;24.76;100.00;98457.44;4844905;29;19952;-69
2022/07/24 04:29:17;;;;;;;;;;;;;;;24.73;100.00;98464.13;4845188;29;19949;-69
2022/07/24 04:31:48;;;;;;;;;;;;;;;24.70;100.00;98462.25;4845568;29;19954;-69
2022/07/24 04:34:15;;;;;;;;;;;;;;;24.68;100.00;98461.94;4845290;29;19949;-69
2022/07/24 04:36:42;;;;;;;;;;;;;;;24.72;100.00;98462.56;4845032;29;19954;-69
2022/07/24 04:39:09;;;;;;;;;;;;;;;24.77;100.00;98461.91;4845227;29;19951;-69
2022/07/24 04:41:37;;;;;;;;;;;;;;;24.75;100.00;98462.34;4845520;29;19974;-69
2022/07/24 04:44:04;;;;;;;;;;;;;;;24.85;100.00;98460.25;4845329;29;19962;-69
2022/07/24 04:46:32;;;;;;;;;;;;;;;24.97;100.00;98462.03;4845297;29;20453;-69
2022/07/24 04:48:59;;;;;;;;;;;;;;;25.12;100.00;98462.06;4844079;29;20268;-69
2022/07/24 04:51:27;;;;;;;;;;;;;;;25.34;100.00;98460.38;4829535;29;19948;-69
2022/07/24 04:53:54;;;;;;;;;;;;;;;25.57;100.00;98458.72;4845149;29;19957;-69
2022/07/24 04:56:21;;;;;;;;;;;;;;;25.88;100.00;98470.44;4844891;29;20262;-69
2022/07/24 04:58:49;;;;;;;;;;;;;;;26.31;100.00;98468.72;4845098;29;20331;-69
2022/07/24 05:01:16;;;;;;;;;;;;;;;26.64;100.00;98469.19;4845219;29;19971;-69
2022/07/24 05:03:43;;;;;;;;;;;;;;;26.97;100.00;98470.91;4844564;29;19955;-69
2022/07/24 05:06:10;;;;;;;;;;;;;;;27.45;100.00;98466.22;4845379;29;20238;-69
2022/07/24 05:08:37;;;;;;;;;;;;;;;27.80;100.00;98472.50;4844953;29;19966;-69
2022/07/24 05:11:05;;;;;;;;;;;;;;;27.98;100.00;98469.25;4844235;29;19992;-69
2022/07/24 05:13:32;;;;;;;;;;;;;;;28.24;100.00;98468.44;4844863;29;20338;-69
2022/07/24 05:15:59;;;;;;;;;;;;;;;28.64;100.00;98473.88;4828980;29;19963;-69
2022/07/24 05:18:26;;;;;;;;;;;;;;;29.08;100.00;98474.06;4845093;29;20367;-69
2022/07/24 05:20:54;;;;;;;;;;;;;;;29.63;100.00;98472.59;5303406;24;19977;-68
2022/07/24 05:23:21;;;;;;;;;;;;;;;29.96;100.00;98475.50;4844897;29;20250;-69
2022/07/24 05:25:49;;;;;;;;;;;;;;;30.25;100.00;98483.59;4845675;29;19946;-69
2022/07/24 05:28:17;;;;;;;;;;;;;;;30.40;100.00;98486.22;4845608;29;19950;-69
2022/07/24 05:30:44;;;;;;;;;;;;;;;30.66;100.00;98491.66;4845489;29;19959;-69
2022/07/24 05:33:11;;;;;;;;;;;;;;;30.78;100.00;98490.31;4845629;29;21282;-69
2022/07/24 05:35:38;;;;;;;;;;;;;;;30.86;100.00;98485.56;4846013;29;19954;-69
2022/07/24 05:38:06;;;;;;;;;;;;;;;30.90;100.00;98489.75;4844793;29;19949;-69
2022/07/24 05:40:33;;;;;;;;;;;;;;;30.74;100.00;98490.56;4845311;29;19972;-69
2022/07/24 05:43:01;;;;;;;;;;;;;;;30.40;100.00;98495.66;4845632;29;19955;-69
2022/07/24 05:45:28;;;;;;;;;;;;;;;30.30;100.00;98491.44;4844990;29;19954;-69
2022/07/24 05:47:56;;;;;;;;;;;;;;;30.21;100.00;98490.94;4845990;29;19946;-69
2022/07/24 05:50:23;;;;;;;;;;;;;;;30.05;100.00;98492.56;4829616;29;19982;-69
2022/07/24 05:52:50;;;;;;;;;;;;;;;29.93;100.00;98494.63;4844781;29;19953;-69
2022/07/24 05:55:17;;;;;;;;;;;;;;;29.93;100.00;98503.28;4845586;29;19955;-69
2022/07/24 05:57:45;;;;;;;;;;;;;;;29.94;100.00;98498.31;4845182;29;19957;-69
2022/07/24 06:00:13;;;;;;;;;;;;;;;30.00;100.00;98504.09;4844933;29;19965;-69
2022/07/24 06:02:42;;;;;;;;;;;;;;;29.92;100.00;98501.75;4845773;29;19954;-69
2022/07/24 06:05:10;;;;;;;;;;;;;;;30.03;100.00;98500.94;4845311;29;20347;-69
2022/07/24 06:07:37;;;;;;;;;;;;;;;30.12;100.00;98502.78;4845589;29;20254;-69
2022/07/24 06:10:04;;;;;;;;;;;;;;;29.95;100.00;98505.66;4845285;29;19953;-69
2022/07/24 06:12:32;;;;;;;;;;;;;;;30.14;100.00;98503.03;4845429;29;20446;-69
2022/07/24 06:14:59;;;;;;;;;;;;;;;30.01;100.00;98503.56;4845547;29;19950;-69
2022/07/24 06:17:26;;;;;;;;;;;;;;;30.09;100.00;98504.59;4845670;29;19953;-69
2022/07/24 06:19:53;;;;;;;;;;;;;;;30.20;100.00;98510.34;4845270;29;19949;-69
2022/07/24 06:22:21;;;;;;;;;;;;;;;30.19;100.00;98508.00;4845377;29;19975;-69
2022/07/24 06:24:48;;;;;;;;;;;;;;;30.14;100.00;98500.94;4845079;29;19956;-69
2022/07/24 06:27:15;;;;;;;;;;;;;;;30.21;100.00;98514.81;4844908;29;19956;-69
2022/07/24 06:29:42;;;;;;;;;;;;;;;30.26;100.00;98508.25;4844909;29;19948;-69
2022/07/24 06:32:10;;;;;;;;;;;;;;;30.22;100.00;98498.31;4844815;29;19952;-69
2022/07/24 06:34:37;;;;;;;;;;;;;;;30.36;100.00;98505.91;4848757;29;19957;-69
2022/07/24 06:37:04;;;;;;;;;;;;;;;30.29;100.00;98500.66;4848601;29;19951;-69
2022/07/24 06:39:32;;;;;;;;;;;;;;;30.36;100.00;98497.25;4847918;29;19952;-69
2022/07/24 06:41:59;;;;;;;;;;;;;;;30.38;100.00;98509.03;4848418;29;19967;-69
2022/07/24 06:44:28;;;;;;;;;;;;;;;30.32;100.00;98506.13;4847701;29;20359;-69
2022/07/24 06:46:55;;;;;;;;;;;;;;;30.44;100.00;98512.72;4848361;29;19951;-69
2022/07/24 06:49:22;;;;;;;;;;;;;;;30.64;100.00;98509.50;4848612;29;20005;-69
2022/07/24 06:51:50;;;;;;;;;;;;;;;30.62;100.00;98514.25;4847768;29;20367;-69
2022/07/24 06:54:17;;;;;;;;;;;;;;;30.79;100.00;98507.09;4848651;29;19949;-69
2022/07/24 06:56:44;;;;;;;;;;;;;;;30.72;100.00;98509.75;4848266;29;20075;-69
2022/07/24 06:59:14;;;;;;;;;;;;;;;30.84;100.00;98517.84;4848194;29;19950;-69
2022/07/24 07:01:41;;;;;;;;;;;;;;;30.93;98.73;98511.03;4847669;29;20246;-69
2022/07/24 07:04:09;;;;;;;;;;;;;;;30.96;99.37;98507.06;4848110;29;20251;-69
2022/07/24 07:06:36;;;;;;;;;;;;;;;31.08;98.14;98511.47;4848057;29;20288;-69
2022/07/24 07:09:06;;;;;;;;;;;;;;;31.24;97.00;98506.91;4835889;29;20243;-69
2022/07/24 07:11:33;;;;;;;;;;;;;;;31.23;96.40;98508.25;4847953;29;20242;-69
2022/07/24 07:14:02;;;;;;;;;;;;;;;31.30;94.75;98502.66;4848132;29;19949;-69
2022/07/24 07:16:29;;;;;;;;;;;;;;;31.29;94.93;98515.56;4848623;29;20310;-69
2022/07/24 07:18:56;;;;;;;;;;;;;;;31.37;94.69;98510.00;4847281;29;19954;-69
2022/07/24 07:21:24;;;;;;;;;;;;;;;31.34;95.50;98514.75;4848020;29;19977;-69
2022/07/24 07:23:52;;;;;;;;;;;;;;;31.19;95.24;98508.53;4847600;29;19956;-69
2022/07/24 07:26:19;;;;;;;;;;;;;;;31.16;96.92;98510.38;4847677;29;19953;-69
2022/07/24 07:28:47;;;;;;;;;;;;;;;31.11;95.90;98502.53;4848001;29;19955;-70
2022/07/24 07:31:14;;;;;;;;;;;;;;;31.16;97.65;98498.81;4847832;29;20329;-69
2022/07/24 07:33:41;;;;;;;;;;;;;;;31.30;94.48;98508.44;4847609;29;19975;-69
2022/07/24 07:36:09;;;;;;;;;;;;;;;31.32;96.06;98505.84;4847458;29;19981;-69
2022/07/24 07:38:37;;;;;;;;;;;;;;;31.34;95.62;98499.50;4847808;29;20340;-69
2022/07/24 07:41:05;;;;;;;;;;;;;;;31.56;94.76;98511.75;4847060;29;19969;-69
2022/07/24 07:43:32;;;;;;;;;;;;;;;31.64;93.77;98515.63;4847150;29;19951;-69
2022/07/24 07:45:59;;;;;;;;;;;;;;;31.70;93.08;98513.47;4846944;29;19947;-69
2022/07/24 07:48:28;;;;;;;;;;;;;;;31.53;94.17;98509.94;4847730;29;19952;-69
2022/07/24 07:50:55;;;;;;;;;;;;;;;31.66;92.65;98509.31;4847305;29;19977;-69
2022/07/24 07:53:23;;;;;;;;;;;;;;;31.62;93.39;98512.47;4847194;29;19953;-70
2022/07/24 07:55:52;;;;;;;;;;;;;;;31.67;93.63;98507.97;4846995;29;19956;-70
2022/07/24 07:58:20;;;;;;;;;;;;;;;31.58;94.96;98511.19;4847089;29;19981;-69
2022/07/24 08:00:47;;;;;;;;;;;;;;;31.52;95.11;98511.22;4846919;29;19975;-69
2022/07/24 08:03:14;;;;;;;;;;;;;;;31.40;93.58;98506.06;4846895;29;19954;-69
2022/07/24 08:05:42;;;;;;;;;;;;;;;31.49;95.08;98506.53;4847403;29;19949;-69
2022/07/24 08:08:09;;;;;;;;;;;;;;;31.45;93.19;98505.25;4847063;29;19958;-69
2022/07/24 08:10:36;;;;;;;;;;;;;;;31.43;98.79;98511.53;4847579;29;19956;-69
2022/07/24 08:13:04;;;;;;;;;;;;;;;31.57;96.70;98515.44;4847003;29;19957;-69
2022/07/24 08:15:32;;;;;;;;;;;;;;;31.56;100.00;98505.19;4847240;29;20237;-69
2022/07/24 08:17:59;;;;;;;;;;;;;;;31.57;94.67;98510.41;4846967;29;19951;-69
2022/07/24 08:20:26;;;;;;;;;;;;;;;31.73;95.22;98511.63;4830992;29;19947;-69
2022/07/24 08:22:54;;;;;;;;;;;;;;;31.58;95.54;98509.09;4846516;29;19976;-69
2022/07/24 08:25:21;;;;;;;;;;;;;;;31.68;94.88;98509.56;4846186;29;19946;-69
2022/07/24 08:27:49;;;;;;;;;;;;;;;31.55;98.83;98503.59;4845795;29;19951;-69
2022/07/24 08:30:16;;;;;;;;;;;;;;;31.69;95.63;98517.69;4846451;29;19977;-69
2022/07/24 08:32:43;;;;;;;;;;;;;;;31.91;95.44;98513.06;4847034;29;19952;-69
2022/07/24 08:35:38;;;;;;;;;;;;;;;32.05;93.18;98515.59;4846921;29;19944;-69
2022/07/24 08:38:06;;;;;;;;;;;;;;;31.97;93.28;98514.59;4846135;29;19949;-69
2022/07/24 08:40:34;;;;;;;;;;;;;;;31.92;93.25;98515.41;4846782;29;19950;-69
2022/07/24 08:43:03;;;;;;;;;;;;;;;31.85;94.38;98518.88;4846089;29;19975;-69
2022/07/24 08:45:33;;;;;;;;;;;;;;;32.04;94.70;98519.81;4846597;29;19949;-69
2022/07/24 08:48:04;;;;;;;;;;;;;;;31.96;93.63;98521.69;4846214;29;20462;-69
2022/07/24 08:50:31;;;;;;;;;;;;;;;32.04;92.89;98519.81;4846418;29;19956;-69
2022/07/24 08:53:00;;;;;;;;;;;;;;;32.02;94.00;98522.47;4846625;29;19947;-69
2022/07/24 08:55:28;;;;;;;;;;;;;;;31.98;95.96;98521.19;4845252;29;19951;-69
2022/07/24 08:57:58;;;;;;;;;;;;;;;31.67;100.00;98519.53;4845841;29;19981;-69
2022/07/24 09:00:27;;;;;;;;;;;;;;;31.95;98.38;98528.03;4845673;29;20378;-69
2022/07/24 09:02:54;;;;;;;;;;;;;;;32.02;94.88;98533.25;4845677;29;19961;-69
2022/07/24 09:05:21;;;;;;;;;;;;;;;32.02;98.37;98533.25;4845335;29;19973;-69
2022/07/24 09:08:05;;;;;;;;;;;;;;;32.20;98.50;98535.47;4846310;29;19948;-69
2022/07/24 09:10:33;;;;;;;;;;;;;;;32.10;97.48;98532.13;4846084;29;19956;-69
2022/07/24 09:13:12;;;;;;;;;;;;;;;32.15;95.21;98537.09;4846304;29;19951;-69
2022/07/24 09:15:46;;;;;;;;;;;;;;;32.27;96.60;98531.97;4846062;29;19950;-69
2022/07/24 09:18:46;;;;;;;;;;;;;;;32.18;98.17;98538.13;4845594;29;19959;-69
2022/07/24 09:21:15;;;;;;;;;;;;;;;32.35;100.00;98532.97;4805640;29;20270;-69
2022/07/24 09:23:43;;;;;;;;;;;;;;;32.20;100.00;98535.47;4845403;29;20372;-69
2022/07/24 09:26:11;;;;;;;;;;;;;;;32.11;100.00;98530.78;4845072;29;20347;-69
2022/07/24 09:28:47;;;;;;;;;;;;;;;32.22;100.00;98529.91;4845845;29;19959;-69
2022/07/24 09:31:14;;;;;;;;;;;;;;;32.35;98.45;98532.97;4842761;29;19954;-69
2022/07/24 09:33:42;;;;;;;;;;;;;;;32.41;98.31;98525.78;4845548;29;19947;-69
2022/07/24 09:36:13;;;;;;;;;;;;;;;32.29;98.39;98530.13;4845990;29;19950;-69
2022/07/24 09:38:45;;;;;;;;;;;;;;;32.19;97.16;98531.78;4845755;29;19960;-69
2022/07/24 09:41:18;;;;;;;;;;;;;;;31.99;100.00;98523.53;4845629;29;19954;-69
2022/07/24 09:43:55;;;;;;;;;;;;;;;31.98;98.42;98521.19;4846080;29;20359;-69
2022/07/24 09:46:23;;;;;;;;;;;;;;;32.03;100.00;98529.03;4845938;29;19956;-69
2022/07/24 09:48:53;;;;;;;;;;;;;;;32.15;100.00;98524.72;4845627;29;19961;-69
2022/07/24 09:51:20;;;;;;;;;;;;;;;32.11;99.46;98533.69;4844924;29;19976;-69
2022/07/24 09:53:52;;;;;;;;;;;;;;;31.94;100.00;98533.00;4845354;29;19946;-69
2022/07/24 09:56:20;;;;;;;;;;;;;;;32.08;100.00;98536.88;4843859;29;19950;-69
2022/07/24 09:58:58;;;;;;;;;;;;;;;32.07;99.23;98527.41;4845760;29;20246;-69
2022/07/24 10:01:27;;;;;;;;;;;;;;;32.05;100.00;98527.19;4845625;29;19942;-69
2022/07/24 10:04:00;;;;;;;;;;;;;;;32.11;100.00;98525.00;4829278;29;19951;-69
2022/07/24 10:06:28;;;;;;;;;;;;;;;32.17;100.00;98536.53;4845983;29;19952;-69
2022/07/24 10:08:56;;;;;;;;;;;;;;;31.95;100.00;98533.81;4848962;29;20343;-69
2022/07/24 10:11:23;;;;;;;;;;;;;;;32.03;100.00;98531.94;4832917;29;19948;-69
2022/07/24 10:13:51;;;;;;;;;;;;;;;32.09;100.00;98527.66;4848407;29;19943;-69
2022/07/24 10:16:31;;;;;;;;;;;;;;;32.31;100.00;98529.56;4849334;29;19945;-69
2022/07/24 10:18:59;;;;;;;;;;;;;;;32.46;99.30;98539.41;4848768;29;19951;-69
2022/07/24 10:21:28;;;;;;;;;;;;;;;32.54;94.10;98536.75;4848417;29;19972;-69
2022/07/24 10:24:05;;;;;;;;;;;;;;;32.48;99.63;98533.88;4848706;29;19951;-69
2022/07/24 10:26:35;;;;;;;;;;;;;;;32.40;94.20;98524.19;4849096;29;19950;-69
2022/07/24 10:29:06;;;;;;;;;;;;;;;32.33;98.23;98521.13;4848613;29;19956;-70
2022/07/24 10:31:35;;;;;;;;;;;;;;;32.39;95.83;98516.88;4848308;29;20261;-69
2022/07/24 10:34:04;;;;;;;;;;;;;;;32.13;97.16;98515.81;4848889;29;19960;-69
2022/07/24 10:36:36;;;;;;;;;;;;;;;32.33;100.00;98512.44;4848839;29;19960;-69
2022/07/24 10:39:08;;;;;;;;;;;;;;;32.33;96.58;98524.00;4848341;29;19957;-69
2022/07/24 10:41:36;;;;;;;;;;;;;;;32.52;93.93;98516.25;4848715;29;19948;-69
2022/07/24 10:44:17;;;;;;;;;;;;;;;32.51;100.00;98513.88;4848828;29;19955;-69
2022/07/24 10:47:04;;;;;;;;;;;;;;;32.55;95.99;98518.03;4848105;29;19987;-69
2022/07/24 10:49:41;;;;;;;;;;;;;;;32.56;98.30;98515.91;4848193;29;19963;-69
2022/07/24 10:52:28;;;;;;;;;;;;;;;32.35;95.29;98516.34;4836711;29;19948;-69
2022/07/24 10:55:14;;;;;;;;;;;;;;;32.55;97.31;98505.69;4847910;29;19951;-69
2022/07/24 10:57:48;;;;;;;;;;;;;;;32.28;97.52;98498.81;4847998;29;20345;-69
2022/07/24 11:00:23;;;;;;;;;;;;;;;32.38;96.14;98500.81;4832115;29;19951;-69
2022/07/24 11:02:57;;;;;;;;;;;;;;;32.55;93.95;98500.66;4848265;29;19965;-69
2022/07/24 11:05:29;;;;;;;;;;;;;;;32.30;93.45;98485.34;4847680;29;19950;-69
2022/07/24 11:08:29;;;;;;;;;;;;;;;32.37;96.28;98495.56;4848109;29;19978;-69
2022/07/24 11:11:04;;;;;;;;;;;;;;;32.56;94.40;98502.22;4834626;29;19955;-69
2022/07/24 11:13:32;;;;;;;;;;;;;;;32.65;98.27;98493.16;4848339;29;19953;-69
2022/07/24 11:16:11;;;;;;;;;;;;;;;32.54;93.51;98486.72;4848001;29;19973;-69
2022/07/24 11:18:42;;;;;;;;;;;;;;;32.55;94.94;98491.97;4846831;29;20249;-69
2022/07/24 11:21:26;;;;;;;;;;;;;;;32.29;93.45;98483.00;4846970;29;19971;-69
2022/07/24 11:24:12;;;;;;;;;;;;;;;32.55;97.08;98480.38;4831492;29;19969;-69
2022/07/24 11:26:48;;;;;;;;;;;;;;;32.41;92.75;98487.34;4847588;29;19947;-69
2022/07/24 11:29:17;;;;;;;;;;;;;;;32.57;94.75;98479.84;4847458;29;19947;-69
2022/07/24 11:31:47;;;;;;;;;;;;;;;32.52;94.67;98478.59;4847327;29;19959;-69
2022/07/24 11:34:15;;;;;;;;;;;;;;;32.34;94.89;98465.59;4847340;29;19959;-69
2022/07/24 11:36:44;;;;;;;;;;;;;;;32.26;93.05;98463.84;4847911;29;19942;-69
2022/07/24 11:39:11;;;;;;;;;;;;;;;32.23;93.11;98464.94;4847604;29;19952;-69
2022/07/24 11:41:45;;;;;;;;;;;;;;;32.34;95.04;98471.38;4846831;29;19950;-69
2022/07/24 11:44:13;;;;;;;;;;;;;;;32.30;93.77;98462.19;4847656;29;19964;-69
2022/07/24 11:46:42;;;;;;;;;;;;;;;32.38;93.18;98450.81;4847367;29;19961;-70
2022/07/24 11:49:09;;;;;;;;;;;;;;;32.33;95.71;98458.22;4846972;29;19956;-70
2022/07/24 11:51:55;;;;;;;;;;;;;;;32.37;94.60;98455.03;4847179;29;19960;-70
2022/07/24 11:54:23;;;;;;;;;;;;;;;32.57;94.76;98454.59;4847596;29;20251;-70
2022/07/24 11:56:52;;;;;;;;;;;;;;;32.54;93.62;98461.47;4846218;29;19951;-69
2022/07/24 11:59:22;;;;;;;;;;;;;;;32.71;93.72;98461.25;4847255;29;19947;-69
2022/07/24 12:01:50;;;;;;;;;;;;;;;32.71;86.63;98450.47;4846796;29;19953;-70
2022/07/24 12:04:21;;;;;;;;;;;;;;;32.68;88.38;98457.34;4837224;29;19970;-69
2022/07/24 12:06:48;;;;;;;;;;;;;;;32.77;86.96;98448.25;4846948;29;19957;-69
2022/07/24 12:09:16;;;;;;;;;;;;;;;32.87;90.26;98449.44;4846783;29;19957;-69
2022/07/24 12:11:43;;;;;;;;;;;;;;;32.85;86.32;98442.63;4847087;29;20338;-69
2022/07/24 12:14:15;;;;;;;;;;;;;;;32.88;87.15;98439.44;4846270;29;19952;-69
2022/07/24 12:16:42;;;;;;;;;;;;;;;32.85;85.89;98440.53;4846523;29;19956;-69
2022/07/24 12:19:14;;;;;;;;;;;;;;;32.84;80.97;98436.06;4846489;29;19954;-69
2022/07/24 12:21:42;;;;;;;;;;;;;;;32.88;87.45;98442.34;4846804;29;20222;-69
2022/07/24 12:24:10;;;;;;;;;;;;;;;33.00;85.88;98440.06;4846465;29;19969;-69
2022/07/24 12:26:56;;;;;;;;;;;;;;;32.91;83.22;98438.34;4846556;29;19949;-70
2022/07/24 12:29:24;;;;;;;;;;;;;;;32.83;85.12;98434.50;4846138;29;19957;-70
2022/07/24 12:31:54;;;;;;;;;;;;;;;32.97;83.06;98430.34;4845920;29;19949;-69
2022/07/24 12:34:21;;;;;;;;;;;;;;;32.93;81.79;98420.41;4846311;29;20360;-69
2022/07/24 12:36:48;;;;;;;;;;;;;;;33.10;83.30;98421.00;4846031;29;19950;-69
2022/07/24 12:39:16;;;;;;;;;;;;;;;33.15;82.40;98419.34;4845893;29;19957;-69
2022/07/24 12:41:49;;;;;;;;;;;;;;;33.15;82.59;98407.75;4845985;29;19947;-69
2022/07/24 12:44:17;;;;;;;;;;;;;;;33.20;83.01;98406.88;4843625;29;19979;-68
2022/07/24 12:46:44;;;;;;;;;;;;;;;33.24;80.02;98413.13;4846629;29;19946;-69
2022/07/24 12:49:12;;;;;;;;;;;;;;;33.31;81.95;98406.69;4846566;29;20333;-69